sensor_id;sensor_type;location;lat;lon;timestamp;temperature;humidity
14705;DHT22;7442;50.840;3.396;2022-11-20T00:02:06;20.20;53.20
14705;DHT22;7442;50.840;3.396;2022-11-20T00:04:36;20.20;53.60
14705;DHT22;7442;50.840;3.396;2022-11-20T00:07:06;20.20;53.60
14705;DHT22;7442;50.840;3.396;2022-11-20T00:09:40;20.10;53.70
14705;DHT22;7442;50.840;3.396;2022-11-20T00:12:10;20.10;54.40
14705;DHT22;7442;50.840;3.396;2022-11-20T00:14:47;20.20;53.90
14705;DHT22;7442;50.840;3.396;2022-11-20T00:17:17;20.20;53.80
14705;DHT22;7442;50.840;3.396;2022-11-20T00:19:47;20.30;53.80
14705;DHT22;7442;50.840;3.396;2022-11-20T00:22:17;20.30;53.70
14705;DHT22;7442;50.840;3.396;2022-11-20T00:24:47;20.30;53.70
14705;DHT22;7442;50.840;3.396;2022-11-20T00:27:17;20.30;53.60
14705;DHT22;7442;50.840;3.396;2022-11-20T00:29:49;20.30;53.70
14705;DHT22;7442;50.840;3.396;2022-11-20T00:32:19;20.30;53.40
14705;DHT22;7442;50.840;3.396;2022-11-20T00:34:49;20.30;53.30
14705;DHT22;7442;50.840;3.396;2022-11-20T00:37:19;20.30;53.20
14705;DHT22;7442;50.840;3.396;2022-11-20T00:39:49;20.30;53.20
14705;DHT22;7442;50.840;3.396;2022-11-20T00:42:19;20.30;53.20
14705;DHT22;7442;50.840;3.396;2022-11-20T00:44:49;20.30;53.20
14705;DHT22;7442;50.840;3.396;2022-11-20T00:47:19;20.30;53.20
14705;DHT22;7442;50.840;3.396;2022-11-20T00:49:49;20.30;53.30
14705;DHT22;7442;50.840;3.396;2022-11-20T00:52:19;20.20;53.20
14705;DHT22;7442;50.840;3.396;2022-11-20T00:54:49;20.30;53.30
14705;DHT22;7442;50.840;3.396;2022-11-20T00:57:19;20.20;53.20
14705;DHT22;7442;50.840;3.396;2022-11-20T00:59:49;20.20;53.30
14705;DHT22;7442;50.840;3.396;2022-11-20T01:02:20;20.20;53.20
14705;DHT22;7442;50.840;3.396;2022-11-20T01:04:50;20.20;53.20
14705;DHT22;7442;50.840;3.396;2022-11-20T01:07:20;20.10;53.40
14705;DHT22;7442;50.840;3.396;2022-11-20T01:09:50;20.10;53.50
14705;DHT22;7442;50.840;3.396;2022-11-20T01:12:20;20.10;53.50
14705;DHT22;7442;50.840;3.396;2022-11-20T01:14:50;20.10;53.40
14705;DHT22;7442;50.840;3.396;2022-11-20T01:17:20;20.10;53.50
14705;DHT22;7442;50.840;3.396;2022-11-20T01:19:50;20.20;53.40
14705;DHT22;7442;50.840;3.396;2022-11-20T01:22:20;20.20;53.30
14705;DHT22;7442;50.840;3.396;2022-11-20T01:24:52;20.20;53.20
14705;DHT22;7442;50.840;3.396;2022-11-20T01:27:23;20.20;53.10
14705;DHT22;7442;50.840;3.396;2022-11-20T01:29:59;20.20;53.10
14705;DHT22;7442;50.840;3.396;2022-11-20T01:32:31;20.30;53.00
14705;DHT22;7442;50.840;3.396;2022-11-20T01:35:01;20.30;53.00
14705;DHT22;7442;50.840;3.396;2022-11-20T01:37:31;20.30;52.90
14705;DHT22;7442;50.840;3.396;2022-11-20T01:40:01;20.30;52.90
14705;DHT22;7442;50.840;3.396;2022-11-20T01:42:33;20.30;52.90
14705;DHT22;7442;50.840;3.396;2022-11-20T01:45:56;20.30;52.90
14705;DHT22;7442;50.840;3.396;2022-11-20T01:48:25;20.20;52.80
14705;DHT22;7442;50.840;3.396;2022-11-20T01:50:56;20.20;52.80
14705;DHT22;7442;50.840;3.396;2022-11-20T01:53:32;20.20;52.90
14705;DHT22;7442;50.840;3.396;2022-11-20T01:56:02;20.20;53.00
14705;DHT22;7442;50.840;3.396;2022-11-20T01:58:35;20.20;53.00
14705;DHT22;7442;50.840;3.396;2022-11-20T02:01:06;20.20;53.00
14705;DHT22;7442;50.840;3.396;2022-11-20T02:03:36;20.20;53.10
14705;DHT22;7442;50.840;3.396;2022-11-20T02:06:45;20.10;53.10
14705;DHT22;7442;50.840;3.396;2022-11-20T02:09:18;20.10;53.20
14705;DHT22;7442;50.840;3.396;2022-11-20T02:11:48;20.00;53.20
14705;DHT22;7442;50.840;3.396;2022-11-20T02:14:20;20.10;53.30
14705;DHT22;7442;50.840;3.396;2022-11-20T02:16:51;20.10;53.30
14705;DHT22;7442;50.840;3.396;2022-11-20T02:19:30;20.10;53.10
14705;DHT22;7442;50.840;3.396;2022-11-20T02:22:16;20.10;53.10
14705;DHT22;7442;50.840;3.396;2022-11-20T02:24:47;20.20;53.10
14705;DHT22;7442;50.840;3.396;2022-11-20T02:27:19;20.10;53.00
14705;DHT22;7442;50.840;3.396;2022-11-20T02:30:04;20.10;53.00
14705;DHT22;7442;50.840;3.396;2022-11-20T02:32:37;20.20;52.90
14705;DHT22;7442;50.840;3.396;2022-11-20T02:35:10;20.20;52.80
14705;DHT22;7442;50.840;3.396;2022-11-20T02:37:41;20.20;52.70
14705;DHT22;7442;50.840;3.396;2022-11-20T02:40:11;20.20;52.60
14705;DHT22;7442;50.840;3.396;2022-11-20T02:42:41;20.20;52.70
14705;DHT22;7442;50.840;3.396;2022-11-20T02:45:12;20.20;52.80
14705;DHT22;7442;50.840;3.396;2022-11-20T02:47:48;20.20;52.70
14705;DHT22;7442;50.840;3.396;2022-11-20T02:50:19;20.20;52.70
14705;DHT22;7442;50.840;3.396;2022-11-20T02:52:49;20.20;52.80
14705;DHT22;7442;50.840;3.396;2022-11-20T02:55:19;20.20;52.80
14705;DHT22;7442;50.840;3.396;2022-11-20T02:57:49;20.10;52.80
14705;DHT22;7442;50.840;3.396;2022-11-20T03:00:19;20.10;52.90
14705;DHT22;7442;50.840;3.396;2022-11-20T03:02:49;20.10;52.90
14705;DHT22;7442;50.840;3.396;2022-11-20T03:05:19;20.10;52.90
14705;DHT22;7442;50.840;3.396;2022-11-20T03:07:49;20.00;53.00
14705;DHT22;7442;50.840;3.396;2022-11-20T03:10:19;20.00;53.00
14705;DHT22;7442;50.840;3.396;2022-11-20T03:12:54;20.00;53.20
14705;DHT22;7442;50.840;3.396;2022-11-20T03:15:26;20.00;53.10
14705;DHT22;7442;50.840;3.396;2022-11-20T03:17:56;20.00;53.10
14705;DHT22;7442;50.840;3.396;2022-11-20T03:20:28;20.10;53.10
14705;DHT22;7442;50.840;3.396;2022-11-20T03:22:59;20.10;53.00
14705;DHT22;7442;50.840;3.396;2022-11-20T03:25:29;20.10;53.00
14705;DHT22;7442;50.840;3.396;2022-11-20T03:28:00;20.10;53.00
14705;DHT22;7442;50.840;3.396;2022-11-20T03:30:30;20.10;53.00
14705;DHT22;7442;50.840;3.396;2022-11-20T03:33:00;20.10;52.80
14705;DHT22;7442;50.840;3.396;2022-11-20T03:35:30;20.10;52.70
14705;DHT22;7442;50.840;3.396;2022-11-20T03:38:00;20.20;52.60
14705;DHT22;7442;50.840;3.396;2022-11-20T03:40:30;20.20;52.70
14705;DHT22;7442;50.840;3.396;2022-11-20T03:43:00;20.20;52.70
14705;DHT22;7442;50.840;3.396;2022-11-20T03:45:37;20.20;52.60
14705;DHT22;7442;50.840;3.396;2022-11-20T03:48:07;20.10;52.70
14705;DHT22;7442;50.840;3.396;2022-11-20T03:50:37;20.10;52.80
14705;DHT22;7442;50.840;3.396;2022-11-20T03:53:08;20.10;52.70
14705;DHT22;7442;50.840;3.396;2022-11-20T03:55:38;20.10;52.70
14705;DHT22;7442;50.840;3.396;2022-11-20T03:58:08;20.10;52.80
14705;DHT22;7442;50.840;3.396;2022-11-20T04:00:45;20.10;52.80
14705;DHT22;7442;50.840;3.396;2022-11-20T04:03:15;20.10;52.80
14705;DHT22;7442;50.840;3.396;2022-11-20T04:05:45;20.10;53.40
14705;DHT22;7442;50.840;3.396;2022-11-20T04:08:15;20.00;52.80
14705;DHT22;7442;50.840;3.396;2022-11-20T04:10:45;20.00;52.80
14705;DHT22;7442;50.840;3.396;2022-11-20T04:13:15;20.00;52.80
14705;DHT22;7442;50.840;3.396;2022-11-20T04:15:45;20.00;52.90
14705;DHT22;7442;50.840;3.396;2022-11-20T04:18:15;20.00;52.90
14705;DHT22;7442;50.840;3.396;2022-11-20T04:20:45;20.00;52.80
14705;DHT22;7442;50.840;3.396;2022-11-20T04:23:15;20.00;52.80
14705;DHT22;7442;50.840;3.396;2022-11-20T04:25:45;20.00;52.80
14705;DHT22;7442;50.840;3.396;2022-11-20T04:28:16;20.00;52.90
14705;DHT22;7442;50.840;3.396;2022-11-20T04:30:53;20.00;52.90
14705;DHT22;7442;50.840;3.396;2022-11-20T04:33:23;20.00;53.40
14705;DHT22;7442;50.840;3.396;2022-11-20T04:35:53;20.00;52.80
14705;DHT22;7442;50.840;3.396;2022-11-20T04:38:23;20.00;52.80
14705;DHT22;7442;50.840;3.396;2022-11-20T04:40:56;20.00;52.80
14705;DHT22;7442;50.840;3.396;2022-11-20T04:43:29;20.00;52.70
14705;DHT22;7442;50.840;3.396;2022-11-20T04:46:00;20.00;52.90
14705;DHT22;7442;50.840;3.396;2022-11-20T04:48:30;19.90;52.80
14705;DHT22;7442;50.840;3.396;2022-11-20T04:51:03;19.90;52.80
14705;DHT22;7442;50.840;3.396;2022-11-20T04:53:33;20.00;52.80
14705;DHT22;7442;50.840;3.396;2022-11-20T04:56:05;20.00;52.70
14705;DHT22;7442;50.840;3.396;2022-11-20T04:58:37;20.00;52.70
14705;DHT22;7442;50.840;3.396;2022-11-20T05:03:41;20.00;52.70
14705;DHT22;7442;50.840;3.396;2022-11-20T05:06:13;19.90;52.80
14705;DHT22;7442;50.840;3.396;2022-11-20T05:08:43;19.90;52.70
14705;DHT22;7442;50.840;3.396;2022-11-20T05:11:16;19.90;52.80
14705;DHT22;7442;50.840;3.396;2022-11-20T05:13:48;19.90;52.70
14705;DHT22;7442;50.840;3.396;2022-11-20T05:16:20;19.90;52.70
14705;DHT22;7442;50.840;3.396;2022-11-20T05:18:52;19.90;52.80
14705;DHT22;7442;50.840;3.396;2022-11-20T05:21:23;19.90;52.70
14705;DHT22;7442;50.840;3.396;2022-11-20T05:23:53;19.90;52.80
14705;DHT22;7442;50.840;3.396;2022-11-20T05:26:23;19.90;52.80
14705;DHT22;7442;50.840;3.396;2022-11-20T05:28:53;19.90;52.80
14705;DHT22;7442;50.840;3.396;2022-11-20T05:31:30;19.90;52.70
14705;DHT22;7442;50.840;3.396;2022-11-20T05:34:00;19.90;52.70
14705;DHT22;7442;50.840;3.396;2022-11-20T05:36:30;19.90;52.80
14705;DHT22;7442;50.840;3.396;2022-11-20T05:39:02;19.90;52.80
14705;DHT22;7442;50.840;3.396;2022-11-20T05:41:35;19.90;52.80
14705;DHT22;7442;50.840;3.396;2022-11-20T05:44:05;19.90;52.80
14705;DHT22;7442;50.840;3.396;2022-11-20T05:46:42;19.90;52.70
14705;DHT22;7442;50.840;3.396;2022-11-20T05:49:18;19.90;52.70
14705;DHT22;7442;50.840;3.396;2022-11-20T05:51:48;19.90;52.70
14705;DHT22;7442;50.840;3.396;2022-11-20T05:54:18;19.90;52.80
14705;DHT22;7442;50.840;3.396;2022-11-20T05:56:50;19.90;52.80
14705;DHT22;7442;50.840;3.396;2022-11-20T05:59:21;19.90;52.90
14705;DHT22;7442;50.840;3.396;2022-11-20T06:01:58;19.90;52.70
14705;DHT22;7442;50.840;3.396;2022-11-20T06:04:28;19.90;52.70
14705;DHT22;7442;50.840;3.396;2022-11-20T06:06:58;19.90;52.70
14705;DHT22;7442;50.840;3.396;2022-11-20T06:09:32;19.90;52.70
14705;DHT22;7442;50.840;3.396;2022-11-20T06:12:02;19.90;52.70
14705;DHT22;7442;50.840;3.396;2022-11-20T06:14:32;19.90;52.70
14705;DHT22;7442;50.840;3.396;2022-11-20T06:17:03;19.90;52.70
14705;DHT22;7442;50.840;3.396;2022-11-20T06:19:33;19.90;52.70
14705;DHT22;7442;50.840;3.396;2022-11-20T06:22:03;19.90;52.70
14705;DHT22;7442;50.840;3.396;2022-11-20T06:24:33;19.90;52.70
14705;DHT22;7442;50.840;3.396;2022-11-20T06:27:05;19.90;52.70
14705;DHT22;7442;50.840;3.396;2022-11-20T06:29:35;19.90;52.70
14705;DHT22;7442;50.840;3.396;2022-11-20T06:32:05;19.90;52.70
14705;DHT22;7442;50.840;3.396;2022-11-20T06:34:35;19.90;52.70
14705;DHT22;7442;50.840;3.396;2022-11-20T06:37:09;19.90;52.70
14705;DHT22;7442;50.840;3.396;2022-11-20T06:39:39;19.80;52.70
14705;DHT22;7442;50.840;3.396;2022-11-20T06:42:09;19.90;52.80
14705;DHT22;7442;50.840;3.396;2022-11-20T06:44:39;19.90;52.70
14705;DHT22;7442;50.840;3.396;2022-11-20T06:47:09;19.90;52.70
14705;DHT22;7442;50.840;3.396;2022-11-20T06:49:39;19.90;52.70
14705;DHT22;7442;50.840;3.396;2022-11-20T06:52:10;19.90;52.70
14705;DHT22;7442;50.840;3.396;2022-11-20T06:54:40;19.80;52.60
14705;DHT22;7442;50.840;3.396;2022-11-20T06:57:10;19.90;52.70
14705;DHT22;7442;50.840;3.396;2022-11-20T06:59:40;19.90;52.70
14705;DHT22;7442;50.840;3.396;2022-11-20T07:02:11;19.90;52.70
14705;DHT22;7442;50.840;3.396;2022-11-20T07:04:42;19.80;52.60
14705;DHT22;7442;50.840;3.396;2022-11-20T07:07:12;19.90;52.70
14705;DHT22;7442;50.840;3.396;2022-11-20T07:09:48;19.80;52.80
14705;DHT22;7442;50.840;3.396;2022-11-20T07:12:18;19.90;52.80
14705;DHT22;7442;50.840;3.396;2022-11-20T07:14:49;19.90;52.70
14705;DHT22;7442;50.840;3.396;2022-11-20T07:17:19;19.80;52.70
14705;DHT22;7442;50.840;3.396;2022-11-20T07:19:49;19.90;52.70
14705;DHT22;7442;50.840;3.396;2022-11-20T07:22:19;19.80;52.70
14705;DHT22;7442;50.840;3.396;2022-11-20T07:24:50;19.80;52.70
14705;DHT22;7442;50.840;3.396;2022-11-20T07:27:20;19.80;52.60
14705;DHT22;7442;50.840;3.396;2022-11-20T07:29:50;19.90;52.60
14705;DHT22;7442;50.840;3.396;2022-11-20T07:32:20;19.90;52.60
14705;DHT22;7442;50.840;3.396;2022-11-20T07:34:50;19.90;52.70
14705;DHT22;7442;50.840;3.396;2022-11-20T07:37:21;19.90;52.70
14705;DHT22;7442;50.840;3.396;2022-11-20T07:39:51;19.80;52.60
14705;DHT22;7442;50.840;3.396;2022-11-20T07:42:21;19.90;52.70
14705;DHT22;7442;50.840;3.396;2022-11-20T07:44:51;19.90;52.70
14705;DHT22;7442;50.840;3.396;2022-11-20T07:47:21;19.90;52.70
14705;DHT22;7442;50.840;3.396;2022-11-20T07:49:52;19.90;52.70
14705;DHT22;7442;50.840;3.396;2022-11-20T07:52:23;19.90;52.70
14705;DHT22;7442;50.840;3.396;2022-11-20T07:54:53;19.80;52.60
14705;DHT22;7442;50.840;3.396;2022-11-20T07:57:23;19.90;52.70
14705;DHT22;7442;50.840;3.396;2022-11-20T07:59:54;19.80;52.70
14705;DHT22;7442;50.840;3.396;2022-11-20T08:02:24;19.80;52.70
14705;DHT22;7442;50.840;3.396;2022-11-20T08:04:54;19.80;52.80
14705;DHT22;7442;50.840;3.396;2022-11-20T08:07:24;19.80;52.80
14705;DHT22;7442;50.840;3.396;2022-11-20T08:09:54;19.80;52.80
14705;DHT22;7442;50.840;3.396;2022-11-20T08:12:24;19.80;52.80
14705;DHT22;7442;50.840;3.396;2022-11-20T08:15:12;19.80;52.80
14705;DHT22;7442;50.840;3.396;2022-11-20T08:17:42;19.80;52.90
14705;DHT22;7442;50.840;3.396;2022-11-20T08:20:12;19.80;52.80
14705;DHT22;7442;50.840;3.396;2022-11-20T08:22:42;19.90;52.80
14705;DHT22;7442;50.840;3.396;2022-11-20T08:25:13;19.80;52.70
14705;DHT22;7442;50.840;3.396;2022-11-20T08:27:50;19.80;52.80
14705;DHT22;7442;50.840;3.396;2022-11-20T08:30:21;19.80;52.80
14705;DHT22;7442;50.840;3.396;2022-11-20T08:32:52;19.80;52.80
14705;DHT22;7442;50.840;3.396;2022-11-20T08:35:22;19.90;52.90
14705;DHT22;7442;50.840;3.396;2022-11-20T08:37:52;19.90;52.80
14705;DHT22;7442;50.840;3.396;2022-11-20T08:40:22;19.90;52.80
14705;DHT22;7442;50.840;3.396;2022-11-20T08:42:53;19.90;53.00
14705;DHT22;7442;50.840;3.396;2022-11-20T08:45:23;19.90;53.20
14705;DHT22;7442;50.840;3.396;2022-11-20T08:47:53;19.90;53.50
14705;DHT22;7442;50.840;3.396;2022-11-20T08:50:23;20.00;53.90
14705;DHT22;7442;50.840;3.396;2022-11-20T08:52:53;20.00;54.20
14705;DHT22;7442;50.840;3.396;2022-11-20T08:55:23;20.00;54.20
14705;DHT22;7442;50.840;3.396;2022-11-20T08:57:53;20.00;54.30
14705;DHT22;7442;50.840;3.396;2022-11-20T09:00:23;20.00;54.30
14705;DHT22;7442;50.840;3.396;2022-11-20T09:02:53;20.00;54.50
14705;DHT22;7442;50.840;3.396;2022-11-20T09:05:24;20.00;54.60
14705;DHT22;7442;50.840;3.396;2022-11-20T09:07:58;20.00;54.60
14705;DHT22;7442;50.840;3.396;2022-11-20T09:10:35;20.00;54.70
14705;DHT22;7442;50.840;3.396;2022-11-20T09:13:05;20.00;54.70
14705;DHT22;7442;50.840;3.396;2022-11-20T09:15:39;20.00;54.80
14705;DHT22;7442;50.840;3.396;2022-11-20T09:18:09;20.00;54.90
14705;DHT22;7442;50.840;3.396;2022-11-20T09:20:39;20.00;54.60
14705;DHT22;7442;50.840;3.396;2022-11-20T09:23:09;20.00;55.00
14705;DHT22;7442;50.840;3.396;2022-11-20T09:25:39;20.00;54.90
14705;DHT22;7442;50.840;3.396;2022-11-20T09:28:10;20.00;54.90
14705;DHT22;7442;50.840;3.396;2022-11-20T09:30:40;20.00;54.60
14705;DHT22;7442;50.840;3.396;2022-11-20T09:33:10;20.00;54.50
14705;DHT22;7442;50.840;3.396;2022-11-20T09:35:40;20.00;54.40
14705;DHT22;7442;50.840;3.396;2022-11-20T09:38:13;20.00;53.70
14705;DHT22;7442;50.840;3.396;2022-11-20T09:41:04;20.00;54.10
14705;DHT22;7442;50.840;3.396;2022-11-20T09:43:58;20.00;54.00
14705;DHT22;7442;50.840;3.396;2022-11-20T09:46:45;20.00;54.50
14705;DHT22;7442;50.840;3.396;2022-11-20T09:49:32;20.00;53.90
14705;DHT22;7442;50.840;3.396;2022-11-20T09:52:05;20.00;53.80
14705;DHT22;7442;50.840;3.396;2022-11-20T09:54:35;20.10;53.80
14705;DHT22;7442;50.840;3.396;2022-11-20T09:57:25;20.10;53.70
14705;DHT22;7442;50.840;3.396;2022-11-20T09:59:56;20.10;53.70
14705;DHT22;7442;50.840;3.396;2022-11-20T10:02:55;20.10;53.70
14705;DHT22;7442;50.840;3.396;2022-11-20T10:05:51;20.10;53.70
14705;DHT22;7442;50.840;3.396;2022-11-20T10:08:18;20.20;53.30
14705;DHT22;7442;50.840;3.396;2022-11-20T10:10:54;20.10;53.40
14705;DHT22;7442;50.840;3.396;2022-11-20T10:13:38;20.00;53.60
14705;DHT22;7442;50.840;3.396;2022-11-20T10:16:16;20.10;53.50
14705;DHT22;7442;50.840;3.396;2022-11-20T10:18:59;20.10;53.40
14705;DHT22;7442;50.840;3.396;2022-11-20T10:27:22;20.10;53.10
14705;DHT22;7442;50.840;3.396;2022-11-20T10:29:53;20.00;53.20
14705;DHT22;7442;50.840;3.396;2022-11-20T10:32:21;20.00;53.10
14705;DHT22;7442;50.840;3.396;2022-11-20T10:34:58;20.00;53.00
14705;DHT22;7442;50.840;3.396;2022-11-20T10:37:30;20.00;53.00
14705;DHT22;7442;50.840;3.396;2022-11-20T10:43:07;20.00;53.00
14705;DHT22;7442;50.840;3.396;2022-11-20T10:48:21;20.00;52.90
14705;DHT22;7442;50.840;3.396;2022-11-20T10:54:21;20.00;52.90
14705;DHT22;7442;50.840;3.396;2022-11-20T10:56:42;20.00;53.00
14705;DHT22;7442;50.840;3.396;2022-11-20T10:59:53;20.00;53.10
14705;DHT22;7442;50.840;3.396;2022-11-20T11:02:23;20.00;53.10
14705;DHT22;7442;50.840;3.396;2022-11-20T11:04:54;19.90;53.10
14705;DHT22;7442;50.840;3.396;2022-11-20T11:07:37;20.00;53.10
14705;DHT22;7442;50.840;3.396;2022-11-20T11:10:51;20.00;53.20
14705;DHT22;7442;50.840;3.396;2022-11-20T11:12:36;19.90;53.20
14705;DHT22;7442;50.840;3.396;2022-11-20T11:15:11;20.00;53.20
14705;DHT22;7442;50.840;3.396;2022-11-20T11:17:47;19.90;53.30
14705;DHT22;7442;50.840;3.396;2022-11-20T11:20:25;20.00;53.20
14705;DHT22;7442;50.840;3.396;2022-11-20T11:22:53;19.90;53.30
14705;DHT22;7442;50.840;3.396;2022-11-20T11:25:35;20.00;53.30
14705;DHT22;7442;50.840;3.396;2022-11-20T11:28:21;20.00;53.30
14705;DHT22;7442;50.840;3.396;2022-11-20T11:30:56;20.00;53.20
14705;DHT22;7442;50.840;3.396;2022-11-20T11:33:29;20.00;53.20
14705;DHT22;7442;50.840;3.396;2022-11-20T11:36:02;19.90;53.10
14705;DHT22;7442;50.840;3.396;2022-11-20T11:38:41;19.90;53.20
14705;DHT22;7442;50.840;3.396;2022-11-20T11:41:16;19.90;53.30
14705;DHT22;7442;50.840;3.396;2022-11-20T11:43:54;19.90;53.30
14705;DHT22;7442;50.840;3.396;2022-11-20T11:46:52;19.90;53.20
14705;DHT22;7442;50.840;3.396;2022-11-20T11:49:22;19.90;53.20
14705;DHT22;7442;50.840;3.396;2022-11-20T11:52:12;19.90;53.90
14705;DHT22;7442;50.840;3.396;2022-11-20T11:55:03;19.90;53.30
14705;DHT22;7442;50.840;3.396;2022-11-20T11:57:46;19.90;53.30
14705;DHT22;7442;50.840;3.396;2022-11-20T12:00:20;19.90;53.20
14705;DHT22;7442;50.840;3.396;2022-11-20T12:03:12;19.90;53.20
14705;DHT22;7442;50.840;3.396;2022-11-20T12:05:48;19.80;53.20
14705;DHT22;7442;50.840;3.396;2022-11-20T12:08:36;19.90;53.30
14705;DHT22;7442;50.840;3.396;2022-11-20T12:11:12;19.90;53.20
14705;DHT22;7442;50.840;3.396;2022-11-20T12:13:54;19.80;53.10
14705;DHT22;7442;50.840;3.396;2022-11-20T12:16:25;19.90;53.30
14705;DHT22;7442;50.840;3.396;2022-11-20T12:18:55;19.80;53.20
14705;DHT22;7442;50.840;3.396;2022-11-20T12:21:30;19.80;53.20
14705;DHT22;7442;50.840;3.396;2022-11-20T12:27:21;19.90;53.10
14705;DHT22;7442;50.840;3.396;2022-11-20T12:29:50;19.90;53.10
14705;DHT22;7442;50.840;3.396;2022-11-20T12:53:39;19.90;53.00
14705;DHT22;7442;50.840;3.396;2022-11-20T13:01:52;19.80;53.10
14705;DHT22;7442;50.840;3.396;2022-11-20T13:07:10;19.80;53.10
14705;DHT22;7442;50.840;3.396;2022-11-20T13:09:48;19.80;53.00
14705;DHT22;7442;50.840;3.396;2022-11-20T13:17:44;19.80;52.90
14705;DHT22;7442;50.840;3.396;2022-11-20T13:20:12;19.80;53.00
14705;DHT22;7442;50.840;3.396;2022-11-20T13:22:56;19.80;53.10
14705;DHT22;7442;50.840;3.396;2022-11-20T13:25:35;19.70;53.20
14705;DHT22;7442;50.840;3.396;2022-11-20T13:30:51;19.70;53.20
14705;DHT22;7442;50.840;3.396;2022-11-20T13:36:06;19.70;53.10
14705;DHT22;7442;50.840;3.396;2022-11-20T13:38:51;19.70;53.20
14705;DHT22;7442;50.840;3.396;2022-11-20T13:41:27;19.70;53.20
14705;DHT22;7442;50.840;3.396;2022-11-20T13:44:04;19.70;53.20
14705;DHT22;7442;50.840;3.396;2022-11-20T13:46:39;19.80;53.00
14705;DHT22;7442;50.840;3.396;2022-11-20T13:49:17;19.90;52.90
14705;DHT22;7442;50.840;3.396;2022-11-20T13:51:50;20.00;52.80
14705;DHT22;7442;50.840;3.396;2022-11-20T14:00:20;20.00;52.70
14705;DHT22;7442;50.840;3.396;2022-11-20T14:02:59;20.00;52.60
14705;DHT22;7442;50.840;3.396;2022-11-20T14:05:31;20.00;52.70
14705;DHT22;7442;50.840;3.396;2022-11-20T14:08:04;20.00;52.70
14705;DHT22;7442;50.840;3.396;2022-11-20T14:10:42;20.00;52.70
14705;DHT22;7442;50.840;3.396;2022-11-20T14:13:19;20.00;52.70
14705;DHT22;7442;50.840;3.396;2022-11-20T14:15:56;19.90;52.90
14705;DHT22;7442;50.840;3.396;2022-11-20T14:18:25;20.00;52.90
14705;DHT22;7442;50.840;3.396;2022-11-20T14:20:54;20.00;52.90
14705;DHT22;7442;50.840;3.396;2022-11-20T14:23:29;20.00;53.00
14705;DHT22;7442;50.840;3.396;2022-11-20T14:25:59;20.00;52.90
14705;DHT22;7442;50.840;3.396;2022-11-20T14:28:30;20.00;53.00
14705;DHT22;7442;50.840;3.396;2022-11-20T14:31:01;20.00;53.00
14705;DHT22;7442;50.840;3.396;2022-11-20T14:33:32;20.00;53.10
14705;DHT22;7442;50.840;3.396;2022-11-20T14:36:03;20.00;53.00
14705;DHT22;7442;50.840;3.396;2022-11-20T14:38:33;20.00;53.10
14705;DHT22;7442;50.840;3.396;2022-11-20T14:41:08;19.90;53.10
14705;DHT22;7442;50.840;3.396;2022-11-20T14:43:38;20.00;53.10
14705;DHT22;7442;50.840;3.396;2022-11-20T14:46:09;19.90;53.10
14705;DHT22;7442;50.840;3.396;2022-11-20T14:48:43;20.00;53.10
14705;DHT22;7442;50.840;3.396;2022-11-20T14:51:34;20.00;53.10
14705;DHT22;7442;50.840;3.396;2022-11-20T14:54:15;19.90;53.20
14705;DHT22;7442;50.840;3.396;2022-11-20T14:57:02;19.90;53.30
14705;DHT22;7442;50.840;3.396;2022-11-20T14:59:31;19.90;53.30
14705;DHT22;7442;50.840;3.396;2022-11-20T15:02:09;19.90;53.40
14705;DHT22;7442;50.840;3.396;2022-11-20T15:04:49;19.90;53.30
14705;DHT22;7442;50.840;3.396;2022-11-20T15:07:36;19.90;53.30
14705;DHT22;7442;50.840;3.396;2022-11-20T15:10:11;19.90;53.50
14705;DHT22;7442;50.840;3.396;2022-11-20T15:12:46;19.90;53.60
14705;DHT22;7442;50.840;3.396;2022-11-20T15:15:25;19.90;53.50
14705;DHT22;7442;50.840;3.396;2022-11-20T15:17:56;19.90;53.60
14705;DHT22;7442;50.840;3.396;2022-11-20T15:20:29;19.90;53.40
14705;DHT22;7442;50.840;3.396;2022-11-20T15:23:00;19.90;53.50
14705;DHT22;7442;50.840;3.396;2022-11-20T15:25:30;19.90;53.40
14705;DHT22;7442;50.840;3.396;2022-11-20T15:28:00;19.90;53.50
14705;DHT22;7442;50.840;3.396;2022-11-20T15:30:30;19.90;53.50
14705;DHT22;7442;50.840;3.396;2022-11-20T15:33:00;19.90;53.40
14705;DHT22;7442;50.840;3.396;2022-11-20T15:35:30;19.90;53.50
14705;DHT22;7442;50.840;3.396;2022-11-20T15:38:00;19.90;53.50
14705;DHT22;7442;50.840;3.396;2022-11-20T15:40:30;19.80;53.50
14705;DHT22;7442;50.840;3.396;2022-11-20T15:43:00;19.80;53.60
14705;DHT22;7442;50.840;3.396;2022-11-20T15:48:16;19.80;53.70
14705;DHT22;7442;50.840;3.396;2022-11-20T15:51:06;19.80;53.60
14705;DHT22;7442;50.840;3.396;2022-11-20T15:53:35;19.80;53.60
14705;DHT22;7442;50.840;3.396;2022-11-20T15:56:06;19.80;53.70
14705;DHT22;7442;50.840;3.396;2022-11-20T15:58:36;19.80;53.70
14705;DHT22;7442;50.840;3.396;2022-11-20T16:01:14;19.80;53.80
14705;DHT22;7442;50.840;3.396;2022-11-20T16:03:41;19.80;53.90
14705;DHT22;7442;50.840;3.396;2022-11-20T16:06:15;19.70;53.80
14705;DHT22;7442;50.840;3.396;2022-11-20T16:08:45;19.70;53.70
14705;DHT22;7442;50.840;3.396;2022-11-20T16:11:17;19.70;53.80
14705;DHT22;7442;50.840;3.396;2022-11-20T16:13:47;19.70;53.80
14705;DHT22;7442;50.840;3.396;2022-11-20T16:16:36;19.70;53.80
14705;DHT22;7442;50.840;3.396;2022-11-20T16:19:14;19.70;53.80
14705;DHT22;7442;50.840;3.396;2022-11-20T16:21:44;19.80;53.80
14705;DHT22;7442;50.840;3.396;2022-11-20T16:24:15;19.80;53.50
14705;DHT22;7442;50.840;3.396;2022-11-20T16:26:45;19.90;53.50
14705;DHT22;7442;50.840;3.396;2022-11-20T16:29:15;19.90;53.40
14705;DHT22;7442;50.840;3.396;2022-11-20T16:31:46;19.90;53.30
14705;DHT22;7442;50.840;3.396;2022-11-20T16:34:16;19.90;53.30
14705;DHT22;7442;50.840;3.396;2022-11-20T16:36:49;19.90;53.30
14705;DHT22;7442;50.840;3.396;2022-11-20T16:39:19;19.90;53.40
14705;DHT22;7442;50.840;3.396;2022-11-20T16:41:49;19.90;53.50
14705;DHT22;7442;50.840;3.396;2022-11-20T16:44:26;19.90;53.40
14705;DHT22;7442;50.840;3.396;2022-11-20T16:46:56;19.90;53.30
14705;DHT22;7442;50.840;3.396;2022-11-20T16:49:26;19.90;53.50
14705;DHT22;7442;50.840;3.396;2022-11-20T16:51:56;20.00;53.40
14705;DHT22;7442;50.840;3.396;2022-11-20T16:54:26;20.10;53.10
14705;DHT22;7442;50.840;3.396;2022-11-20T16:57:03;20.20;53.00
14705;DHT22;7442;50.840;3.396;2022-11-20T16:59:33;20.20;53.10
14705;DHT22;7442;50.840;3.396;2022-11-20T17:02:03;20.20;53.10
14705;DHT22;7442;50.840;3.396;2022-11-20T17:04:33;20.20;53.40
14705;DHT22;7442;50.840;3.396;2022-11-20T17:07:03;20.10;53.50
14705;DHT22;7442;50.840;3.396;2022-11-20T17:09:33;20.20;53.60
14705;DHT22;7442;50.840;3.396;2022-11-20T17:12:04;20.10;53.30
14705;DHT22;7442;50.840;3.396;2022-11-20T17:14:34;20.10;53.70
14705;DHT22;7442;50.840;3.396;2022-11-20T17:17:04;20.10;53.90
14705;DHT22;7442;50.840;3.396;2022-11-20T17:19:34;20.10;54.00
14705;DHT22;7442;50.840;3.396;2022-11-20T17:22:04;20.20;54.10
14705;DHT22;7442;50.840;3.396;2022-11-20T17:24:34;20.20;54.30
14705;DHT22;7442;50.840;3.396;2022-11-20T17:27:08;20.30;53.90
14705;DHT22;7442;50.840;3.396;2022-11-20T17:29:38;20.40;53.90
14705;DHT22;7442;50.840;3.396;2022-11-20T17:32:08;20.40;54.10